sensor_id;sensor_type;location;lat;lon;timestamp;P1;durP1;ratioP1;P2;durP2;ratioP2
19384;SDS011;9828;54.122;17.974;2023-02-27T00:04:33;6.80;;;2.63;;
19384;SDS011;9828;54.122;17.974;2023-02-27T00:09:55;3.37;;;1.93;;
19384;SDS011;9828;54.122;17.974;2023-02-27T00:15:17;4.07;;;1.80;;
19384;SDS011;9828;54.122;17.974;2023-02-27T00:20:39;5.20;;;2.10;;
19384;SDS011;9828;54.122;17.974;2023-02-27T00:26:01;9.23;;;3.70;;
19384;SDS011;9828;54.122;17.974;2023-02-27T00:31:23;5.93;;;3.20;;
19384;SDS011;9828;54.122;17.974;2023-02-27T00:36:44;5.83;;;2.50;;
19384;SDS011;9828;54.122;17.974;2023-02-27T00:42:06;3.70;;;1.80;;
19384;SDS011;9828;54.122;17.974;2023-02-27T00:47:27;5.20;;;1.40;;
19384;SDS011;9828;54.122;17.974;2023-02-27T00:52:48;4.03;;;1.97;;
19384;SDS011;9828;54.122;17.974;2023-02-27T00:58:10;6.43;;;2.17;;
19384;SDS011;9828;54.122;17.974;2023-02-27T01:03:31;5.07;;;1.87;;
19384;SDS011;9828;54.122;17.974;2023-02-27T01:08:52;4.20;;;1.63;;
19384;SDS011;9828;54.122;17.974;2023-02-27T01:14:16;2.47;;;1.43;;
19384;SDS011;9828;54.122;17.974;2023-02-27T01:19:38;3.43;;;1.60;;
19384;SDS011;9828;54.122;17.974;2023-02-27T01:25:00;4.57;;;1.90;;
19384;SDS011;9828;54.122;17.974;2023-02-27T01:30:22;6.13;;;2.33;;
19384;SDS011;9828;54.122;17.974;2023-02-27T01:35:43;4.10;;;2.33;;
19384;SDS011;9828;54.122;17.974;2023-02-27T01:41:05;5.70;;;2.37;;
19384;SDS011;9828;54.122;17.974;2023-02-27T01:46:27;5.00;;;2.13;;
19384;SDS011;9828;54.122;17.974;2023-02-27T01:51:54;4.57;;;2.30;;
19384;SDS011;9828;54.122;17.974;2023-02-27T01:57:22;4.07;;;2.07;;
19384;SDS011;9828;54.122;17.974;2023-02-27T02:02:51;2.93;;;2.17;;
19384;SDS011;9828;54.122;17.974;2023-02-27T02:08:25;5.53;;;2.20;;
19384;SDS011;9828;54.122;17.974;2023-02-27T02:13:50;3.10;;;2.43;;
19384;SDS011;9828;54.122;17.974;2023-02-27T03:03:51;6.93;;;3.33;;
19384;SDS011;9828;54.122;17.974;2023-02-27T03:09:17;4.87;;;2.60;;
19384;SDS011;9828;54.122;17.974;2023-02-27T03:14:47;3.27;;;1.97;;
19384;SDS011;9828;54.122;17.974;2023-02-27T03:20:53;4.73;;;2.00;;
19384;SDS011;9828;54.122;17.974;2023-02-27T03:26:22;3.53;;;2.10;;
19384;SDS011;9828;54.122;17.974;2023-02-27T03:31:50;5.80;;;2.20;;
19384;SDS011;9828;54.122;17.974;2023-02-27T03:37:38;6.97;;;3.93;;
19384;SDS011;9828;54.122;17.974;2023-02-27T03:48:53;6.80;;;4.90;;
19384;SDS011;9828;54.122;17.974;2023-02-27T03:54:15;11.97;;;6.90;;
19384;SDS011;9828;54.122;17.974;2023-02-27T03:59:47;10.93;;;5.03;;
19384;SDS011;9828;54.122;17.974;2023-02-27T04:05:09;5.83;;;3.07;;
19384;SDS011;9828;54.122;17.974;2023-02-27T04:27:46;26.77;;;16.00;;
19384;SDS011;9828;54.122;17.974;2023-02-27T04:39:04;10.40;;;5.33;;
19384;SDS011;9828;54.122;17.974;2023-02-27T04:44:26;7.80;;;4.30;;
19384;SDS011;9828;54.122;17.974;2023-02-27T04:49:50;7.37;;;4.77;;
19384;SDS011;9828;54.122;17.974;2023-02-27T05:00:40;11.67;;;6.87;;
19384;SDS011;9828;54.122;17.974;2023-02-27T05:06:05;26.40;;;10.90;;
19384;SDS011;9828;54.122;17.974;2023-02-27T05:11:29;14.83;;;6.40;;
19384;SDS011;9828;54.122;17.974;2023-02-27T05:17:03;22.57;;;8.83;;
19384;SDS011;9828;54.122;17.974;2023-02-27T05:27:57;24.57;;;10.27;;
19384;SDS011;9828;54.122;17.974;2023-02-27T05:33:42;14.77;;;7.33;;
19384;SDS011;9828;54.122;17.974;2023-02-27T05:39:11;12.27;;;6.73;;
19384;SDS011;9828;54.122;17.974;2023-02-27T05:44:36;12.13;;;6.63;;
19384;SDS011;9828;54.122;17.974;2023-02-27T05:50:07;11.63;;;6.90;;
19384;SDS011;9828;54.122;17.974;2023-02-27T05:55:34;11.67;;;6.73;;
19384;SDS011;9828;54.122;17.974;2023-02-27T06:00:57;9.23;;;5.33;;
19384;SDS011;9828;54.122;17.974;2023-02-27T06:06:20;5.73;;;3.60;;
19384;SDS011;9828;54.122;17.974;2023-02-27T06:11:42;10.63;;;6.13;;
19384;SDS011;9828;54.122;17.974;2023-02-27T06:17:03;20.10;;;10.73;;
19384;SDS011;9828;54.122;17.974;2023-02-27T06:22:25;34.83;;;20.63;;
19384;SDS011;9828;54.122;17.974;2023-02-27T06:27:46;41.33;;;21.63;;
19384;SDS011;9828;54.122;17.974;2023-02-27T06:33:08;38.43;;;18.60;;
19384;SDS011;9828;54.122;17.974;2023-02-27T06:38:29;97.67;;;48.97;;
19384;SDS011;9828;54.122;17.974;2023-02-27T06:43:51;45.67;;;23.83;;
19384;SDS011;9828;54.122;17.974;2023-02-27T06:49:12;40.20;;;22.73;;
19384;SDS011;9828;54.122;17.974;2023-02-27T06:54:33;48.47;;;25.70;;
19384;SDS011;9828;54.122;17.974;2023-02-27T06:59:55;52.43;;;23.80;;
19384;SDS011;9828;54.122;17.974;2023-02-27T07:05:16;42.03;;;20.67;;
19384;SDS011;9828;54.122;17.974;2023-02-27T07:10:37;25.23;;;13.07;;
19384;SDS011;9828;54.122;17.974;2023-02-27T07:15:59;18.40;;;9.50;;
19384;SDS011;9828;54.122;17.974;2023-02-27T07:21:20;39.93;;;23.07;;
19384;SDS011;9828;54.122;17.974;2023-02-27T07:26:42;64.73;;;28.70;;
19384;SDS011;9828;54.122;17.974;2023-02-27T07:32:03;183.23;;;68.70;;
19384;SDS011;9828;54.122;17.974;2023-02-27T07:37:25;200.17;;;82.53;;
19384;SDS011;9828;54.122;17.974;2023-02-27T07:42:47;201.33;;;87.37;;
19384;SDS011;9828;54.122;17.974;2023-02-27T07:48:11;124.80;;;62.97;;
19384;SDS011;9828;54.122;17.974;2023-02-27T07:53:32;96.30;;;48.73;;
19384;SDS011;9828;54.122;17.974;2023-02-27T07:58:54;66.03;;;30.53;;
19384;SDS011;9828;54.122;17.974;2023-02-27T08:04:15;51.43;;;24.10;;
19384;SDS011;9828;54.122;17.974;2023-02-27T08:09:36;67.17;;;32.67;;
19384;SDS011;9828;54.122;17.974;2023-02-27T08:14:57;113.97;;;52.27;;
19384;SDS011;9828;54.122;17.974;2023-02-27T08:20:19;78.07;;;32.97;;
19384;SDS011;9828;54.122;17.974;2023-02-27T08:25:44;55.13;;;26.33;;
19384;SDS011;9828;54.122;17.974;2023-02-27T08:31:05;89.50;;;35.07;;
19384;SDS011;9828;54.122;17.974;2023-02-27T08:36:27;90.87;;;35.43;;
19384;SDS011;9828;54.122;17.974;2023-02-27T08:41:49;46.67;;;23.57;;
19384;SDS011;9828;54.122;17.974;2023-02-27T08:47:12;30.80;;;15.63;;
19384;SDS011;9828;54.122;17.974;2023-02-27T08:52:33;31.57;;;16.67;;
19384;SDS011;9828;54.122;17.974;2023-02-27T08:57:54;40.93;;;18.83;;
19384;SDS011;9828;54.122;17.974;2023-02-27T09:03:16;74.00;;;29.57;;
19384;SDS011;9828;54.122;17.974;2023-02-27T09:08:37;42.17;;;18.40;;
19384;SDS011;9828;54.122;17.974;2023-02-27T09:13:58;23.53;;;9.27;;
19384;SDS011;9828;54.122;17.974;2023-02-27T09:19:20;16.37;;;7.17;;
19384;SDS011;9828;54.122;17.974;2023-02-27T09:24:41;14.53;;;6.73;;
19384;SDS011;9828;54.122;17.974;2023-02-27T09:30:03;17.57;;;6.73;;
19384;SDS011;9828;54.122;17.974;2023-02-27T09:35:25;17.20;;;7.87;;
19384;SDS011;9828;54.122;17.974;2023-02-27T09:40:46;32.70;;;13.20;;
19384;SDS011;9828;54.122;17.974;2023-02-27T09:46:14;21.87;;;8.63;;
19384;SDS011;9828;54.122;17.974;2023-02-27T09:51:40;35.97;;;20.27;;
19384;SDS011;9828;54.122;17.974;2023-02-27T09:57:03;43.47;;;18.40;;
19384;SDS011;9828;54.122;17.974;2023-02-27T10:08:19;10.47;;;4.73;;
19384;SDS011;9828;54.122;17.974;2023-02-27T10:19:36;21.80;;;9.77;;
19384;SDS011;9828;54.122;17.974;2023-02-27T10:24:59;9.97;;;4.53;;
19384;SDS011;9828;54.122;17.974;2023-02-27T10:30:52;7.87;;;4.03;;
19384;SDS011;9828;54.122;17.974;2023-02-27T10:36:15;7.97;;;4.27;;
19384;SDS011;9828;54.122;17.974;2023-02-27T10:41:52;7.47;;;3.73;;
19384;SDS011;9828;54.122;17.974;2023-02-27T10:47:14;5.50;;;3.10;;
19384;SDS011;9828;54.122;17.974;2023-02-27T10:52:46;7.77;;;3.53;;
19384;SDS011;9828;54.122;17.974;2023-02-27T10:58:16;10.20;;;3.63;;
19384;SDS011;9828;54.122;17.974;2023-02-27T11:03:39;11.37;;;5.47;;
19384;SDS011;9828;54.122;17.974;2023-02-27T11:09:23;9.77;;;4.97;;
19384;SDS011;9828;54.122;17.974;2023-02-27T11:14:53;6.60;;;3.97;;
19384;SDS011;9828;54.122;17.974;2023-02-27T11:26:08;7.10;;;4.20;;
19384;SDS011;9828;54.122;17.974;2023-02-27T11:31:35;6.37;;;3.83;;
19384;SDS011;9828;54.122;17.974;2023-02-27T11:36:58;10.83;;;4.97;;
19384;SDS011;9828;54.122;17.974;2023-02-27T11:42:27;18.27;;;7.47;;
19384;SDS011;9828;54.122;17.974;2023-02-27T11:47:52;5.80;;;3.57;;
19384;SDS011;9828;54.122;17.974;2023-02-27T11:59:00;7.40;;;3.80;;
19384;SDS011;9828;54.122;17.974;2023-02-27T12:10:34;10.27;;;6.17;;
19384;SDS011;9828;54.122;17.974;2023-02-27T12:22:03;261.40;;;119.10;;
19384;SDS011;9828;54.122;17.974;2023-02-27T12:27:27;364.03;;;157.60;;
19384;SDS011;9828;54.122;17.974;2023-02-27T12:38:51;11.97;;;6.50;;
19384;SDS011;9828;54.122;17.974;2023-02-27T12:49:59;17.23;;;10.90;;
19384;SDS011;9828;54.122;17.974;2023-02-27T13:00:52;21.70;;;9.77;;
19384;SDS011;9828;54.122;17.974;2023-02-27T13:06:31;27.50;;;12.07;;
19384;SDS011;9828;54.122;17.974;2023-02-27T13:17:42;13.00;;;6.57;;
19384;SDS011;9828;54.122;17.974;2023-02-27T13:28:45;15.97;;;8.03;;
19384;SDS011;9828;54.122;17.974;2023-02-27T13:34:13;19.63;;;10.13;;
19384;SDS011;9828;54.122;17.974;2023-02-27T13:39:40;40.60;;;19.27;;
19384;SDS011;9828;54.122;17.974;2023-02-27T13:45:59;39.07;;;15.73;;
19384;SDS011;9828;54.122;17.974;2023-02-27T13:51:07;17.40;;;6.47;;
19384;SDS011;9828;54.122;17.974;2023-02-27T13:56:31;17.20;;;8.10;;
19384;SDS011;9828;54.122;17.974;2023-02-27T14:01:57;21.17;;;10.33;;
19384;SDS011;9828;54.122;17.974;2023-02-27T14:07:56;9.13;;;4.77;;
19384;SDS011;9828;54.122;17.974;2023-02-27T14:24:52;10.40;;;5.43;;
19384;SDS011;9828;54.122;17.974;2023-02-27T14:30:24;18.80;;;7.87;;
19384;SDS011;9828;54.122;17.974;2023-02-27T14:35:58;13.97;;;6.07;;
19384;SDS011;9828;54.122;17.974;2023-02-27T14:47:04;66.87;;;34.73;;
19384;SDS011;9828;54.122;17.974;2023-02-27T14:52:30;43.37;;;22.30;;
19384;SDS011;9828;54.122;17.974;2023-02-27T14:57:53;182.43;;;86.03;;
19384;SDS011;9828;54.122;17.974;2023-02-27T15:08:58;15.10;;;6.83;;
19384;SDS011;9828;54.122;17.974;2023-02-27T15:14:21;9.03;;;4.40;;
19384;SDS011;9828;54.122;17.974;2023-02-27T15:20:31;6.23;;;4.00;;
19384;SDS011;9828;54.122;17.974;2023-02-27T15:25:55;14.23;;;7.90;;
19384;SDS011;9828;54.122;17.974;2023-02-27T15:31:19;27.60;;;12.33;;
19384;SDS011;9828;54.122;17.974;2023-02-27T15:36:45;19.70;;;9.50;;
19384;SDS011;9828;54.122;17.974;2023-02-27T15:42:14;9.83;;;6.00;;
19384;SDS011;9828;54.122;17.974;2023-02-27T15:47:35;15.13;;;6.90;;
19384;SDS011;9828;54.122;17.974;2023-02-27T15:53:01;15.07;;;5.73;;
19384;SDS011;9828;54.122;17.974;2023-02-27T15:58:35;23.37;;;10.10;;
19384;SDS011;9828;54.122;17.974;2023-02-27T16:03:59;71.57;;;29.40;;
19384;SDS011;9828;54.122;17.974;2023-02-27T16:09:29;60.83;;;26.27;;
19384;SDS011;9828;54.122;17.974;2023-02-27T16:15:08;52.87;;;23.47;;
19384;SDS011;9828;54.122;17.974;2023-02-27T16:26:33;52.53;;;20.97;;
19384;SDS011;9828;54.122;17.974;2023-02-27T16:31:57;112.90;;;48.43;;
19384;SDS011;9828;54.122;17.974;2023-02-27T16:37:22;176.83;;;75.97;;
19384;SDS011;9828;54.122;17.974;2023-02-27T16:42:50;152.13;;;64.83;;
19384;SDS011;9828;54.122;17.974;2023-02-27T16:48:11;134.53;;;59.97;;
19384;SDS011;9828;54.122;17.974;2023-02-27T16:53:32;128.40;;;58.13;;
19384;SDS011;9828;54.122;17.974;2023-02-27T16:58:53;120.53;;;52.60;;
19384;SDS011;9828;54.122;17.974;2023-02-27T17:04:14;151.07;;;63.07;;
19384;SDS011;9828;54.122;17.974;2023-02-27T17:09:45;165.63;;;69.43;;
19384;SDS011;9828;54.122;17.974;2023-02-27T17:15:06;154.93;;;65.63;;
19384;SDS011;9828;54.122;17.974;2023-02-27T17:20:27;161.50;;;69.87;;
19384;SDS011;9828;54.122;17.974;2023-02-27T17:25:51;210.93;;;91.10;;
19384;SDS011;9828;54.122;17.974;2023-02-27T17:31:13;200.10;;;88.93;;
19384;SDS011;9828;54.122;17.974;2023-02-27T17:36:35;207.13;;;93.50;;
19384;SDS011;9828;54.122;17.974;2023-02-27T17:41:56;194.50;;;91.13;;
19384;SDS011;9828;54.122;17.974;2023-02-27T17:47:17;200.23;;;88.17;;
19384;SDS011;9828;54.122;17.974;2023-02-27T17:52:49;223.73;;;99.23;;
19384;SDS011;9828;54.122;17.974;2023-02-27T17:58:10;313.10;;;126.23;;
19384;SDS011;9828;54.122;17.974;2023-02-27T18:03:31;320.07;;;131.40;;
19384;SDS011;9828;54.122;17.974;2023-02-27T18:08:53;373.77;;;148.83;;
19384;SDS011;9828;54.122;17.974;2023-02-27T18:14:14;437.30;;;169.63;;
19384;SDS011;9828;54.122;17.974;2023-02-27T18:19:39;451.10;;;188.13;;
19384;SDS011;9828;54.122;17.974;2023-02-27T18:25:01;466.00;;;188.80;;
19384;SDS011;9828;54.122;17.974;2023-02-27T18:30:23;457.87;;;192.30;;
19384;SDS011;9828;54.122;17.974;2023-02-27T18:35:44;406.07;;;169.50;;
19384;SDS011;9828;54.122;17.974;2023-02-27T18:41:06;363.07;;;150.57;;
19384;SDS011;9828;54.122;17.974;2023-02-27T18:46:28;311.83;;;136.43;;
19384;SDS011;9828;54.122;17.974;2023-02-27T18:51:50;345.63;;;137.13;;
19384;SDS011;9828;54.122;17.974;2023-02-27T18:57:11;332.83;;;133.17;;
19384;SDS011;9828;54.122;17.974;2023-02-27T19:02:33;314.27;;;136.40;;
19384;SDS011;9828;54.122;17.974;2023-02-27T19:07:56;384.13;;;159.53;;
19384;SDS011;9828;54.122;17.974;2023-02-27T19:13:17;407.13;;;173.17;;
19384;SDS011;9828;54.122;17.974;2023-02-27T19:18:38;411.73;;;167.13;;
19384;SDS011;9828;54.122;17.974;2023-02-27T19:24:00;389.87;;;160.70;;
19384;SDS011;9828;54.122;17.974;2023-02-27T19:29:21;392.90;;;159.60;;
19384;SDS011;9828;54.122;17.974;2023-02-27T19:34:42;362.47;;;149.70;;
19384;SDS011;9828;54.122;17.974;2023-02-27T19:40:04;341.37;;;148.17;;
19384;SDS011;9828;54.122;17.974;2023-02-27T19:45:25;324.27;;;137.87;;
19384;SDS011;9828;54.122;17.974;2023-02-27T19:50:47;310.87;;;133.20;;
19384;SDS011;9828;54.122;17.974;2023-02-27T19:56:10;298.83;;;134.80;;
19384;SDS011;9828;54.122;17.974;2023-02-27T20:01:33;297.27;;;129.47;;
19384;SDS011;9828;54.122;17.974;2023-02-27T20:06:56;296.53;;;130.13;;
19384;SDS011;9828;54.122;17.974;2023-02-27T20:12:17;290.13;;;129.73;;
19384;SDS011;9828;54.122;17.974;2023-02-27T20:17:38;289.70;;;126.63;;
19384;SDS011;9828;54.122;17.974;2023-02-27T20:23:01;281.33;;;124.40;;
19384;SDS011;9828;54.122;17.974;2023-02-27T20:28:23;313.73;;;140.00;;
19384;SDS011;9828;54.122;17.974;2023-02-27T20:33:44;406.80;;;169.97;;
19384;SDS011;9828;54.122;17.974;2023-02-27T20:39:06;477.27;;;179.53;;
19384;SDS011;9828;54.122;17.974;2023-02-27T20:44:29;549.57;;;204.40;;
19384;SDS011;9828;54.122;17.974;2023-02-27T20:49:51;608.87;;;235.10;;
19384;SDS011;9828;54.122;17.974;2023-02-27T20:55:12;468.90;;;173.50;;
19384;SDS011;9828;54.122;17.974;2023-02-27T21:00:33;295.47;;;117.30;;
19384;SDS011;9828;54.122;17.974;2023-02-27T21:05:55;226.67;;;96.17;;
19384;SDS011;9828;54.122;17.974;2023-02-27T21:11:20;251.90;;;107.23;;
19384;SDS011;9828;54.122;17.974;2023-02-27T21:16:47;255.13;;;105.30;;
19384;SDS011;9828;54.122;17.974;2023-02-27T21:22:08;248.37;;;104.17;;
19384;SDS011;9828;54.122;17.974;2023-02-27T21:27:32;247.53;;;109.63;;
19384;SDS011;9828;54.122;17.974;2023-02-27T21:32:54;247.87;;;106.47;;
19384;SDS011;9828;54.122;17.974;2023-02-27T21:38:16;243.30;;;109.77;;
19384;SDS011;9828;54.122;17.974;2023-02-27T21:43:38;253.47;;;118.13;;
19384;SDS011;9828;54.122;17.974;2023-02-27T21:49:00;268.83;;;123.00;;
19384;SDS011;9828;54.122;17.974;2023-02-27T21:54:21;295.17;;;136.47;;
19384;SDS011;9828;54.122;17.974;2023-02-27T21:59:43;282.87;;;131.27;;
19384;SDS011;9828;54.122;17.974;2023-02-27T22:05:04;238.93;;;118.13;;
19384;SDS011;9828;54.122;17.974;2023-02-27T22:10:26;240.23;;;116.33;;
19384;SDS011;9828;54.122;17.974;2023-02-27T22:15:48;201.87;;;97.23;;
19384;SDS011;9828;54.122;17.974;2023-02-27T22:21:11;163.57;;;74.77;;
19384;SDS011;9828;54.122;17.974;2023-02-27T22:26:37;116.67;;;57.27;;
19384;SDS011;9828;54.122;17.974;2023-02-27T22:31:59;105.27;;;48.03;;
19384;SDS011;9828;54.122;17.974;2023-02-27T22:37:20;125.93;;;54.47;;
19384;SDS011;9828;54.122;17.974;2023-02-27T22:42:43;139.90;;;62.23;;
19384;SDS011;9828;54.122;17.974;2023-02-27T22:48:05;161.53;;;69.10;;
19384;SDS011;9828;54.122;17.974;2023-02-27T22:53:26;152.50;;;68.27;;
19384;SDS011;9828;54.122;17.974;2023-02-27T22:58:48;139.33;;;62.33;;
19384;SDS011;9828;54.122;17.974;2023-02-27T23:04:09;133.67;;;60.70;;
19384;SDS011;9828;54.122;17.974;2023-02-27T23:09:31;131.87;;;58.50;;
19384;SDS011;9828;54.122;17.974;2023-02-27T23:14:52;131.03;;;61.43;;
19384;SDS011;9828;54.122;17.974;2023-02-27T23:20:13;129.93;;;61.57;;
19384;SDS011;9828;54.122;17.974;2023-02-27T23:25:36;123.70;;;58.07;;
19384;SDS011;9828;54.122;17.974;2023-02-27T23:30:58;156.97;;;67.67;;
19384;SDS011;9828;54.122;17.974;2023-02-27T23:36:19;154.77;;;70.70;;
19384;SDS011;9828;54.122;17.974;2023-02-27T23:41:40;150.37;;;69.03;;
19384;SDS011;9828;54.122;17.974;2023-02-27T23:47:01;162.63;;;72.63;;
19384;SDS011;9828;54.122;17.974;2023-02-27T23:52:22;172.13;;;75.93;;
19384;SDS011;9828;54.122;17.974;2023-02-27T23:57:44;166.93;;;73.57;;
